Time;durP1;ratioP1;P1;durP2;ratioP2;P2;SDS_P1;SDS_P2;PMS_P1;PMS_P2;Temp;Humidity;BMP_temperature;BMP_pressure;BME280_temperature;BME280_humidity;BME280_pressure;Samples;Min_cycle;Max_cycle;Signal;HPM_P1;HPM_P2
2024/01/01 00:01:56;;;;;;;13.07;6.00;;;;;;;5.87;100.00;95582.09;5035316;28;20220;-68
2024/01/01 00:04:26;;;;;;;15.03;6.27;;;;;;;6.09;100.00;95587.50;5034193;28;20225;-68
2024/01/01 00:06:52;;;;;;;15.73;5.30;;;;;;;5.99;100.00;95591.28;5034583;28;20221;-68
2024/01/01 00:09:20;;;;;;;14.10;5.37;;;;;;;6.15;100.00;95590.25;5034137;28;20232;-68
2024/01/01 00:11:47;;;;;;;17.33;5.77;;;;;;;6.01;100.00;95599.75;5035816;28;20297;-68
2024/01/01 00:14:13;;;;;;;15.90;5.87;;;;;;;6.04;100.00;95588.97;5033949;28;20225;-68
2024/01/01 00:16:41;;;;;;;14.80;6.43;;;;;;;6.12;100.00;95582.75;5033146;28;20733;-68
2024/01/01 00:19:07;;;;;;;13.40;5.93;;;;;;;5.91;100.00;95573.78;5034745;28;20581;-68
2024/01/01 00:21:34;;;;;;;15.07;5.17;;;;;;;6.00;100.00;95580.63;5033814;28;20201;-68
2024/01/01 00:24:00;;;;;;;16.80;6.83;;;;;;;6.10;100.00;95573.44;5034249;28;20220;-68
2024/01/01 00:26:28;;;;;;;15.77;6.83;;;;;;;6.15;100.00;95574.56;5034733;28;20209;-68
2024/01/01 00:28:55;;;;;;;14.33;5.90;;;;;;;6.08;100.00;95567.53;5035214;28;20200;-68
2024/01/01 00:31:21;;;;;;;14.93;5.63;;;;;;;5.80;100.00;95576.72;5033630;28;20209;-68
2024/01/01 00:33:48;;;;;;;15.20;5.47;;;;;;;5.99;100.00;95583.41;5033738;28;20223;-68
2024/01/01 00:36:14;;;;;;;17.50;6.07;;;;;;;5.75;100.00;95583.41;5034023;28;20205;-68
2024/01/01 00:38:41;;;;;;;14.90;5.00;;;;;;;5.81;100.00;95590.63;5034258;28;20228;-68
2024/01/01 00:41:14;;;;;;;11.67;5.17;;;;;;;6.00;100.00;95587.69;5034529;28;20201;-68
2024/01/01 00:43:43;;;;;;;11.57;5.27;;;;;;;5.97;100.00;95591.44;5033023;28;20245;-68
2024/01/01 00:46:09;;;;;;;10.83;4.10;;;;;;;5.87;100.00;95582.09;5034453;28;20205;-68
2024/01/01 00:48:36;;;;;;;9.50;4.23;;;;;;;5.80;100.00;95591.59;5033911;28;20212;-68
2024/01/01 00:51:02;;;;;;;8.90;4.43;;;;;;;5.90;100.00;95589.63;5035036;28;20677;-68
2024/01/01 00:53:29;;;;;;;9.97;4.10;;;;;;;5.69;100.00;95589.25;5034757;28;20212;-68
2024/01/01 00:55:55;;;;;;;10.20;3.33;;;;;;;5.60;100.00;95585.84;5036273;28;20205;-68
2024/01/01 00:58:22;;;;;;;9.47;3.80;;;;;;;5.62;100.00;95585.69;5035422;28;20225;-68
2024/01/01 01:00:50;;;;;;;10.43;4.57;;;;;;;5.81;100.00;95585.41;5035513;28;20235;-68
2024/01/01 01:03:16;;;;;;;11.60;4.00;;;;;;;5.61;100.00;95581.44;5033518;28;20229;-68
2024/01/01 01:05:43;;;;;;;9.93;4.07;;;;;;;5.61;100.00;95584.03;5034031;28;20218;-68
2024/01/01 01:08:09;;;;;;;8.93;3.60;;;;;;;5.62;100.00;95580.47;5034393;28;20196;-68
2024/01/01 01:10:36;;;;;;;6.50;3.43;;;;;;;5.54;100.00;95591.72;5034261;28;20201;-68
2024/01/01 01:13:04;;;;;;;7.10;3.00;;;;;;;5.40;100.00;95594.16;5033593;28;20215;-68
2024/01/01 01:15:31;;;;;;;9.53;4.00;;;;;;;5.63;100.00;95585.50;5033743;28;20671;-68
2024/01/01 01:17:59;;;;;;;7.33;3.30;;;;;;;5.96;100.00;95581.13;5035808;28;20225;-68
2024/01/01 01:20:26;;;;;;;12.57;3.63;;;;;;;5.75;100.00;95589.47;5034792;28;20309;-68
2024/01/01 01:22:52;;;;;;;7.40;3.30;;;;;;;5.51;100.00;95586.00;5035417;28;20201;-67
2024/01/01 01:25:19;;;;;;;10.20;3.33;;;;;;;5.57;100.00;95595.81;5035329;28;20577;-68
2024/01/01 01:27:46;;;;;;;11.47;4.00;;;;;;;5.43;100.00;95592.06;5036150;28;20199;-67
2024/01/01 01:30:13;;;;;;;8.70;4.00;;;;;;;5.39;100.00;95596.94;5036174;28;20237;-68
2024/01/01 01:32:40;;;;;;;7.40;3.27;;;;;;;5.43;100.00;95593.81;5034407;28;20607;-68
2024/01/01 01:35:08;;;;;;;10.20;3.87;;;;;;;5.58;100.00;95592.22;5035533;28;20231;-68
2024/01/01 01:37:35;;;;;;;6.87;3.30;;;;;;;5.22;100.00;95596.09;5035133;28;21246;-68
2024/01/01 01:40:03;;;;;;;9.77;3.87;;;;;;;5.36;100.00;95595.47;5035929;28;20211;-68
2024/01/01 01:42:29;;;;;;;9.27;4.13;;;;;;;5.48;100.00;95592.34;5035195;28;20251;-68
2024/01/01 01:44:56;;;;;;;10.10;4.13;;;;;;;5.65;100.00;95590.56;5035621;28;20221;-68
2024/01/01 01:47:24;;;;;;;8.87;4.33;;;;;;;5.50;100.00;95607.91;5034897;28;20219;-68
2024/01/01 01:49:51;;;;;;;8.87;3.27;;;;;;;5.15;100.00;95602.09;5034773;28;20209;-68
2024/01/01 01:52:21;;;;;;;7.33;3.00;;;;;;;5.30;100.00;95606.53;5034727;28;20666;-68
2024/01/01 01:54:50;;;;;;;8.30;2.80;;;;;;;5.30;100.00;95603.94;5037735;28;20221;-68
2024/01/01 01:57:17;;;;;;;8.20;3.10;;;;;;;5.45;100.00;95613.59;5038794;28;20220;-68
2024/01/01 01:59:44;;;;;;;6.20;2.90;;;;;;;5.76;100.00;95605.97;5039115;28;20670;-68
2024/01/01 02:02:11;;;;;;;7.50;2.97;;;;;;;5.67;100.00;95601.69;5038572;28;20271;-68
2024/01/01 02:04:38;;;;;;;4.73;2.33;;;;;;;5.39;100.00;95602.97;5038086;28;20217;-68
2024/01/01 02:07:04;;;;;;;6.23;2.93;;;;;;;5.66;100.00;95598.25;5038680;28;20204;-68
2024/01/01 02:09:32;;;;;;;6.77;2.83;;;;;;;5.39;100.00;95602.16;5038391;28;20201;-68
2024/01/01 02:12:00;;;;;;;7.87;3.10;;;;;;;5.29;100.00;95601.47;5038674;28;20205;-69
2024/01/01 02:14:26;;;;;;;5.57;2.90;;;;;;;5.07;100.00;95602.09;5037794;28;20251;-68
2024/01/01 02:16:53;;;;;;;7.47;2.70;;;;;;;5.12;100.00;95600.63;5037804;28;20689;-68
2024/01/01 02:19:21;;;;;;;5.60;2.77;;;;;;;5.04;100.00;95598.00;5038527;28;20227;-68
2024/01/01 02:21:50;;;;;;;9.17;2.80;;;;;;;5.22;100.00;95585.63;5038065;28;20202;-68
2024/01/01 02:24:18;;;;;;;7.53;2.80;;;;;;;5.27;100.00;95585.97;5038122;28;20217;-69
2024/01/01 02:26:46;;;;;;;7.63;3.20;;;;;;;5.14;100.00;95582.19;5038413;28;20231;-69
2024/01/01 02:29:13;;;;;;;7.23;2.83;;;;;;;5.09;100.00;95574.00;5038533;28;20211;-68
2024/01/01 02:31:40;;;;;;;7.70;2.43;;;;;;;5.08;100.00;95575.81;5038571;28;20200;-68
2024/01/01 02:34:06;;;;;;;6.97;3.07;;;;;;;5.00;100.00;95581.03;5038248;28;20296;-68
2024/01/01 02:36:36;;;;;;;5.50;2.87;;;;;;;5.22;100.00;95575.19;5038103;28;20234;-68
2024/01/01 02:39:02;;;;;;;8.07;3.30;;;;;;;4.93;100.00;95574.78;5038306;28;20231;-68
2024/01/01 02:41:31;;;;;;;8.97;3.53;;;;;;;5.16;100.00;95572.41;5038778;28;21089;-68
2024/01/01 02:43:57;;;;;;;11.03;3.33;;;;;;;4.94;100.00;95566.00;5037467;28;21089;-69
2024/01/01 02:46:24;;;;;;;7.23;3.20;;;;;;;5.11;100.00;95564.25;5037730;28;20670;-68
2024/01/01 02:48:50;;;;;;;5.50;3.10;;;;;;;5.15;100.00;95568.97;5037660;28;20204;-68
2024/01/01 02:51:17;;;;;;;11.80;4.07;;;;;;;5.25;100.00;95563.63;5038196;28;20200;-68
2024/01/01 02:53:44;;;;;;;9.47;3.40;;;;;;;5.10;100.00;95562.59;5036765;28;20221;-68
2024/01/01 02:56:16;;;;;;;7.07;2.83;;;;;;;5.37;100.00;95570.94;5037842;28;20298;-68
2024/01/01 02:58:44;;;;;;;12.13;3.93;;;;;;;5.38;100.00;95564.75;5037119;28;20573;-68
2024/01/01 03:01:10;;;;;;;7.90;3.60;;;;;;;5.20;100.00;95564.06;5037117;28;20216;-68
2024/01/01 03:03:37;;;;;;;7.47;3.67;;;;;;;5.30;100.00;95577.81;5037367;28;20233;-68
2024/01/01 03:06:04;;;;;;;6.77;3.23;;;;;;;5.14;100.00;95577.81;5036338;28;20201;-68
2024/01/01 03:08:30;;;;;;;10.73;4.07;;;;;;;5.40;100.00;95572.44;5037328;28;20293;-68
2024/01/01 03:10:57;;;;;;;8.97;3.70;;;;;;;5.32;100.00;95581.09;5036072;28;20201;-68
2024/01/01 03:13:23;;;;;;;11.53;3.93;;;;;;;5.27;100.00;95578.16;5036136;28;20740;-68
2024/01/01 03:15:51;;;;;;;12.97;5.37;;;;;;;5.53;100.00;95568.38;5037024;28;20208;-68
2024/01/01 03:18:18;;;;;;;8.87;4.17;;;;;;;5.31;100.00;95582.06;5036869;28;20732;-68
2024/01/01 03:20:44;;;;;;;7.50;3.97;;;;;;;5.37;100.00;95585.81;5037245;28;21601;-68
2024/01/01 03:23:11;;;;;;;5.63;3.37;;;;;;;5.31;100.00;95595.13;5036703;28;20208;-68
2024/01/01 03:25:38;;;;;;;6.93;3.40;;;;;;;5.29;100.00;95591.03;5037018;28;20204;-68
2024/01/01 03:28:04;;;;;;;13.80;4.03;;;;;;;5.27;100.00;95592.97;5036524;28;20201;-68
2024/01/01 03:30:31;;;;;;;10.03;4.03;;;;;;;5.31;100.00;95589.06;5036899;28;20683;-68
2024/01/01 03:32:59;;;;;;;6.87;3.57;;;;;;;5.51;100.00;95575.53;5036467;28;20208;-68
2024/01/01 03:35:25;;;;;;;16.20;4.47;;;;;;;5.24;100.00;95583.66;5036864;28;20216;-68
2024/01/01 03:37:52;;;;;;;10.70;4.03;;;;;;;5.33;100.00;95582.72;5036270;28;20764;-68
2024/01/01 03:40:19;;;;;;;9.17;5.13;;;;;;;5.34;100.00;95584.34;5037339;28;20201;-68
2024/01/01 03:42:45;;;;;;;7.80;3.33;;;;;;;5.29;100.00;95589.22;5035922;28;20250;-68
2024/01/01 03:45:12;;;;;;;9.60;3.67;;;;;;;5.27;100.00;95591.19;5036837;28;20337;-68
2024/01/01 03:47:39;;;;;;;8.70;4.10;;;;;;;5.30;100.00;95593.50;5036381;28;20219;-68
2024/01/01 03:50:07;;;;;;;10.80;3.57;;;;;;;5.41;100.00;95580.13;5035128;28;20205;-68
2024/01/01 03:52:34;;;;;;;11.90;4.03;;;;;;;5.28;100.00;95584.97;5036062;28;20201;-68
2024/01/01 03:55:00;;;;;;;6.97;3.40;;;;;;;5.26;100.00;95584.34;5036989;28;20221;-68
2024/01/01 03:57:27;;;;;;;8.87;4.00;;;;;;;5.14;100.00;95596.06;5036460;28;20205;-68
2024/01/01 03:59:53;;;;;;;7.93;3.37;;;;;;;5.14;100.00;95580.41;5036074;28;20341;-68
2024/01/01 04:02:20;;;;;;;7.80;3.87;;;;;;;5.19;100.00;95580.72;5036475;28;20213;-68
2024/01/01 04:04:47;;;;;;;6.50;3.30;;;;;;;5.18;100.00;95586.09;5036170;28;20740;-68
2024/01/01 04:07:14;;;;;;;9.90;3.37;;;;;;;5.28;100.00;95590.19;5036436;28;20282;-68
2024/01/01 04:09:41;;;;;;;11.40;4.07;;;;;;;5.15;100.00;95586.44;5036293;28;20212;-68
2024/01/01 04:12:08;;;;;;;8.80;3.03;;;;;;;5.36;100.00;95592.84;5036295;28;20212;-68
2024/01/01 04:14:34;;;;;;;8.00;3.30;;;;;;;5.32;100.00;95593.31;5036040;28;20221;-68
2024/01/01 04:17:03;;;;;;;7.97;3.37;;;;;;;5.30;100.00;95590.88;5036025;28;20205;-68
2024/01/01 04:19:29;;;;;;;6.57;3.07;;;;;;;5.43;100.00;95582.56;5036287;28;20225;-68
2024/01/01 04:21:56;;;;;;;7.80;3.13;;;;;;;5.41;100.00;95584.50;5035726;28;20229;-68
2024/01/01 04:24:24;;;;;;;7.03;3.37;;;;;;;5.59;100.00;95583.41;5035663;28;20231;-68
2024/01/01 04:26:50;;;;;;;6.60;2.97;;;;;;;5.48;100.00;95591.56;5035846;28;21019;-68
2024/01/01 04:29:17;;;;;;;7.60;3.03;;;;;;;5.46;100.00;95593.53;5036435;28;20205;-68
2024/01/01 04:31:45;;;;;;;9.60;4.20;;;;;;;5.72;100.00;95600.22;5035957;28;20768;-68
2024/01/01 04:34:11;;;;;;;4.20;1.97;;;;;;;5.55;100.00;95616.06;5035769;28;20240;-68
2024/01/01 04:36:40;;;;;;;6.43;3.17;;;;;;;5.73;100.00;95601.06;5036034;28;20685;-68
2024/01/01 04:39:06;;;;;;;6.00;2.77;;;;;;;5.70;100.00;95603.97;5036008;28;20311;-68
2024/01/01 04:41:34;;;;;;;4.63;2.60;;;;;;;5.79;100.00;95606.47;5035181;28;20218;-68
2024/01/01 04:44:01;;;;;;;7.53;2.80;;;;;;;5.51;100.00;95618.19;5035990;28;20227;-68
2024/01/01 04:46:28;;;;;;;8.97;3.33;;;;;;;5.68;100.00;95624.25;5035267;28;20212;-68
2024/01/01 04:48:54;;;;;;;3.40;1.60;;;;;;;5.68;100.00;95624.25;5035962;28;20204;-68
2024/01/01 04:51:21;;;;;;;6.93;2.60;;;;;;;5.65;100.00;95619.31;5036525;28;20201;-68
2024/01/01 04:53:47;;;;;;;5.47;2.20;;;;;;;5.76;100.00;95634.72;5034437;28;20224;-68
2024/01/01 04:56:14;;;;;;;8.33;2.47;;;;;;;5.74;100.00;95634.03;5035667;28;20671;-68
2024/01/01 04:58:41;;;;;;;5.87;2.37;;;;;;;6.06;100.00;95624.44;5036394;28;20237;-68
2024/01/01 05:01:08;;;;;;;5.40;2.47;;;;;;;5.95;100.00;95618.72;5035530;28;20200;-68
2024/01/01 05:03:34;;;;;;;4.07;1.90;;;;;;;5.82;100.00;95615.78;5035279;28;20221;-68
2024/01/01 05:06:01;;;;;;;5.40;2.40;;;;;;;5.81;100.00;95608.91;5036848;28;20224;-68
2024/01/01 05:08:28;;;;;;;6.97;2.30;;;;;;;6.03;100.00;95618.72;5035657;28;20734;-68
2024/01/01 05:10:54;;;;;;;5.03;2.17;;;;;;;5.93;100.00;95615.44;5035279;28;20207;-68
2024/01/01 05:13:21;;;;;;;3.17;1.33;;;;;;;5.85;100.00;95615.44;5035770;28;20235;-68
2024/01/01 05:15:48;;;;;;;4.83;1.53;;;;;;;5.96;100.00;95615.09;5035287;28;21529;-68
2024/01/01 05:18:15;;;;;;;4.43;1.57;;;;;;;5.82;100.00;95623.63;5035313;28;20248;-68
2024/01/01 05:20:42;;;;;;;5.33;2.50;;;;;;;5.94;100.00;95624.94;5035730;28;20656;-68
2024/01/01 05:23:09;;;;;;;4.30;2.30;;;;;;;5.91;100.00;95633.91;5034782;28;20201;-68
2024/01/01 05:25:36;;;;;;;3.60;1.73;;;;;;;5.74;100.00;95628.81;5035562;28;21034;-68
2024/01/01 05:28:05;;;;;;;3.20;1.60;;;;;;;5.81;100.00;95629.84;5036024;28;20202;-68
2024/01/01 05:30:31;;;;;;;7.63;1.37;;;;;;;5.97;100.00;95630.66;5039507;28;20217;-68
2024/01/01 05:32:59;;;;;;;3.17;1.27;;;;;;;5.93;100.00;95633.75;5038557;28;20205;-68
2024/01/01 05:35:26;;;;;;;3.17;1.53;;;;;;;5.82;100.00;95640.13;5039651;28;20631;-68
2024/01/01 05:37:54;;;;;;;3.57;1.30;;;;;;;5.73;100.00;95648.09;5038920;28;20221;-68
2024/01/01 05:40:20;;;;;;;3.03;1.47;;;;;;;5.77;100.00;95655.47;5039611;28;20287;-68
2024/01/01 05:42:47;;;;;;;2.47;1.20;;;;;;;5.82;100.00;95649.78;5037487;28;20681;-68
2024/01/01 05:45:13;;;;;;;2.90;1.10;;;;;;;5.67;100.00;95641.69;5039025;28;20227;-68
2024/01/01 05:47:40;;;;;;;1.83;1.03;;;;;;;5.49;100.00;95650.66;5038885;28;20202;-68
2024/01/01 05:50:08;;;;;;;1.03;0.80;;;;;;;5.75;100.00;95643.50;5039448;28;20198;-68
2024/01/01 05:52:35;;;;;;;3.93;1.30;;;;;;;5.57;100.00;95648.88;5038106;28;20201;-68
2024/01/01 05:55:01;;;;;;;1.33;1.00;;;;;;;5.56;100.00;95643.81;5038691;28;20220;-68
2024/01/01 05:57:28;;;;;;;2.47;1.40;;;;;;;5.38;100.00;95645.72;5039291;28;20574;-68
2024/01/01 05:59:54;;;;;;;1.33;0.87;;;;;;;5.62;100.00;95645.78;5038638;28;20236;-68
2024/01/01 06:02:21;;;;;;;2.30;1.00;;;;;;;5.50;100.00;95641.88;5038543;28;20205;-68
2024/01/01 06:04:47;;;;;;;1.70;0.70;;;;;;;5.41;100.00;95636.75;5038954;28;20231;-68
2024/01/01 06:07:15;;;;;;;2.73;1.53;;;;;;;5.62;100.00;95640.56;5038388;28;20202;-68
2024/01/01 06:09:42;;;;;;;2.07;1.00;;;;;;;5.46;100.00;95648.38;5038716;28;20206;-68
2024/01/01 06:12:08;;;;;;;3.37;0.90;;;;;;;5.42;100.00;95660.09;5038626;28;20212;-68
2024/01/01 06:14:35;;;;;;;2.67;1.00;;;;;;;5.25;100.00;95658.44;5038375;28;20584;-68
2024/01/01 06:17:02;;;;;;;2.17;1.00;;;;;;;5.21;100.00;95657.13;5037794;28;20207;-68
2024/01/01 06:19:29;;;;;;;2.43;0.87;;;;;;;5.11;100.00;95656.44;5038624;28;20228;-68
2024/01/01 06:21:56;;;;;;;1.30;0.73;;;;;;;5.12;100.00;95662.50;5039419;28;20611;-68
2024/01/01 06:24:23;;;;;;;1.13;0.70;;;;;;;5.45;100.00;95670.25;5038062;28;20221;-68
2024/01/01 06:26:50;;;;;;;3.17;1.20;;;;;;;5.19;100.00;95673.94;5037678;28;20263;-68
2024/01/01 06:29:16;;;;;;;1.70;0.60;;;;;;;5.18;100.00;95675.72;5039002;28;20209;-68
2024/01/01 06:31:43;;;;;;;0.80;0.80;;;;;;;5.21;100.00;95674.59;5038336;28;20232;-68
2024/01/01 06:34:09;;;;;;;1.90;0.90;;;;;;;5.21;100.00;95672.78;5037724;28;20229;-68
2024/01/01 06:36:36;;;;;;;1.60;0.97;;;;;;;5.31;100.00;95683.94;5038152;28;20205;-68
2024/01/01 06:39:03;;;;;;;2.70;0.97;;;;;;;5.12;100.00;95681.56;5038027;28;20221;-68
2024/01/01 06:41:31;;;;;;;1.17;0.87;;;;;;;5.42;100.00;95681.00;5037162;28;20687;-68
2024/01/01 06:43:57;;;;;;;0.93;0.80;;;;;;;5.19;100.00;95690.41;5037063;28;20764;-68
2024/01/01 06:46:24;;;;;;;1.37;0.80;;;;;;;5.32;100.00;95685.56;5038195;28;20208;-68
2024/01/01 06:48:50;;;;;;;1.53;0.90;;;;;;;5.25;100.00;95687.16;5036846;28;20689;-68
2024/01/01 06:51:17;;;;;;;3.50;1.23;;;;;;;5.19;100.00;95695.63;5038054;28;20201;-68
2024/01/01 06:53:43;;;;;;;1.43;0.70;;;;;;;5.04;100.00;95699.81;5037478;28;20221;-69
2024/01/01 06:56:10;;;;;;;2.63;1.20;;;;;;;5.17;100.00;95702.81;5037801;28;20193;-68
2024/01/01 06:58:38;;;;;;;1.80;1.27;;;;;;;5.37;100.00;95711.22;5037399;28;20220;-68
2024/01/01 07:01:04;;;;;;;4.97;2.13;;;;;;;5.16;100.00;95703.78;5037704;28;20217;-68
2024/01/01 07:03:31;;;;;;;2.43;1.60;;;;;;;5.28;100.00;95720.78;5037426;28;20221;-68
2024/01/01 07:05:57;;;;;;;3.90;1.27;;;;;;;5.40;100.00;95714.31;5036918;28;20774;-68
2024/01/01 07:08:24;;;;;;;2.30;1.23;;;;;;;5.21;100.00;95722.41;5037496;28;20204;-68
2024/01/01 07:10:50;;;;;;;3.27;0.90;;;;;;;5.30;100.00;95729.31;5036728;28;20209;-68
2024/01/01 07:13:17;;;;;;;1.77;0.90;;;;;;;5.19;100.00;95736.59;5030690;28;20254;-68
2024/01/01 07:15:45;;;;;;;0.70;0.60;;;;;;;5.47;100.00;95741.44;5035514;28;20209;-67
2024/01/01 07:18:11;;;;;;;1.80;0.90;;;;;;;5.34;100.00;95740.28;5036522;28;20201;-68
2024/01/01 07:20:38;;;;;;;2.80;1.00;;;;;;;5.43;100.00;95744.53;5036220;28;20672;-68
2024/01/01 07:23:05;;;;;;;1.17;0.80;;;;;;;5.48;100.00;95748.31;5035909;28;20209;-67
2024/01/01 07:25:31;;;;;;;1.10;0.80;;;;;;;5.53;100.00;95746.84;5036364;28;20710;-68
2024/01/01 07:27:58;;;;;;;1.63;1.00;;;;;;;5.48;100.00;95745.69;5035713;28;20201;-68
2024/01/01 07:30:24;;;;;;;2.23;1.30;;;;;;;5.58;100.00;95760.25;5035959;28;20197;-68
2024/01/01 07:32:52;;;;;;;4.87;1.27;;;;;;;5.60;100.00;95766.16;5036929;28;20682;-69
2024/01/01 07:35:19;;;;;;;1.50;0.80;;;;;;;5.54;100.00;95763.38;5036900;28;20236;-68
2024/01/01 07:37:46;;;;;;;2.80;0.87;;;;;;;5.50;100.00;95775.13;5037551;28;20270;-68
2024/01/01 07:40:12;;;;;;;1.37;1.20;;;;;;;5.47;100.00;95764.97;5038537;28;20722;-69
2024/01/01 07:42:39;;;;;;;3.53;1.30;;;;;;;5.63;100.00;95778.09;5038280;28;20284;-69
2024/01/01 07:45:06;;;;;;;6.47;1.13;;;;;;;5.48;100.00;95777.06;5039375;28;20217;-69
2024/01/01 07:47:32;;;;;;;4.00;1.50;;;;;;;5.58;100.00;95781.19;5035280;28;20206;-70
2024/01/01 07:50:00;;;;;;;2.77;1.10;;;;;;;5.76;100.00;95783.72;5034973;28;21141;-70
2024/01/01 07:52:27;;;;;;;1.67;1.00;;;;;;;5.53;100.00;95785.25;5036051;28;20197;-69
2024/01/01 07:54:57;;;;;;;3.57;1.10;;;;;;;5.67;100.00;95784.66;5035820;28;20225;-69
2024/01/01 07:57:23;;;;;;;4.80;2.10;;;;;;;5.54;100.00;95772.00;5036724;28;21070;-68
2024/01/01 07:59:49;;;;;;;2.93;1.10;;;;;;;5.57;100.00;95766.47;5037915;28;20285;-69
2024/01/01 08:02:16;;;;;;;4.77;2.00;;;;;;;5.73;100.00;95773.56;5035601;28;20216;-68
2024/01/01 08:04:42;;;;;;;7.17;1.50;;;;;;;5.65;100.00;95769.13;5036653;28;20228;-68
2024/01/01 08:07:11;;;;;;;4.40;2.13;;;;;;;5.87;100.00;95767.72;5034370;28;20701;-68
2024/01/01 08:09:37;;;;;;;12.43;4.47;;;;;;;5.80;100.00;95774.59;5035371;28;20197;-68
2024/01/01 08:12:05;;;;;;;15.33;4.63;;;;;;;6.01;100.00;95788.88;5034815;28;20204;-68
2024/01/01 08:14:32;;;;;;;17.00;8.50;;;;;;;6.02;100.00;95777.44;5037834;28;20225;-68
2024/01/01 08:16:58;;;;;;;11.43;6.17;;;;;;;5.93;100.00;95783.63;5035972;28;20743;-68
2024/01/01 08:19:25;;;;;;;4.67;2.63;;;;;;;6.20;100.00;95768.47;5036638;28;20225;-68
2024/01/01 08:21:52;;;;;;;11.50;2.83;;;;;;;6.26;100.00;95783.50;5036675;28;20201;-68
2024/01/01 08:24:20;;;;;;;6.90;2.50;;;;;;;6.33;100.00;95779.25;5036014;28;20730;-69
2024/01/01 08:26:47;;;;;;;2.60;1.30;;;;;;;6.29;100.00;95790.22;5036267;28;20204;-66
2024/01/01 08:29:13;;;;;;;7.60;2.03;;;;;;;6.46;100.00;95794.50;5036530;28;20209;-66
2024/01/01 08:31:40;;;;;;;6.77;1.93;;;;;;;6.33;100.00;95797.56;5036655;28;20201;-65
2024/01/01 08:34:06;;;;;;;2.47;1.30;;;;;;;6.38;100.00;95805.75;5036148;28;20604;-66
2024/01/01 08:36:33;;;;;;;4.57;0.97;;;;;;;6.37;100.00;95806.72;5033892;28;20209;-66
2024/01/01 08:38:59;;;;;;;4.00;0.90;;;;;;;6.34;100.00;95814.91;5035702;28;20202;-65
2024/01/01 08:41:27;;;;;;;2.60;0.93;;;;;;;6.63;100.00;95802.16;5037239;28;20201;-66
2024/01/01 08:43:57;;;;;;;1.67;1.00;;;;;;;6.46;100.00;95797.91;5035023;28;20221;-66
2024/01/01 08:46:24;;;;;;;9.20;2.37;;;;;;;6.70;100.00;95803.16;5034211;28;20267;-68
2024/01/01 08:48:51;;;;;;;2.07;1.00;;;;;;;6.72;100.00;95807.25;5034847;28;20671;-68
2024/01/01 08:51:17;;;;;;;3.80;2.03;;;;;;;6.63;100.00;95793.50;5034474;28;20197;-68
2024/01/01 08:53:44;;;;;;;1.90;1.13;;;;;;;6.68;100.00;95808.56;5033961;28;20228;-69
2024/01/01 08:56:10;;;;;;;2.17;1.23;;;;;;;6.70;100.00;95793.50;5034923;28;20201;-69
2024/01/01 08:58:38;;;;;;;1.13;0.90;;;;;;;6.83;100.00;95787.75;5032210;28;20216;-69
2024/01/01 09:01:06;;;;;;;3.33;1.20;;;;;;;6.79;100.00;95789.88;5033403;28;20224;-69
2024/01/01 09:03:33;;;;;;;0.73;0.50;;;;;;;6.93;100.00;95793.66;5033665;28;20236;-69
2024/01/01 09:05:59;;;;;;;1.77;0.93;;;;;;;6.77;100.00;95796.28;5038420;28;20212;-69
2024/01/01 09:08:26;;;;;;;1.77;1.00;;;;;;;6.83;100.00;95793.00;5037786;28;20576;-69
2024/01/01 09:10:52;;;;;;;1.17;0.80;;;;;;;7.04;100.00;95801.16;5037768;28;20204;-68
2024/01/01 09:13:19;;;;;;;6.77;1.10;;;;;;;7.00;100.00;95815.56;5037146;28;20738;-67
2024/01/01 09:15:47;;;;;;;1.10;0.80;;;;;;;7.26;100.00;95808.34;5037965;28;20197;-69
2024/01/01 09:18:13;;;;;;;1.60;0.93;;;;;;;7.20;100.00;95814.25;5037623;28;20201;-69
2024/01/01 09:20:41;;;;;;;1.70;1.30;;;;;;;7.26;100.00;95821.44;5037120;28;20605;-69
2024/01/01 09:23:08;;;;;;;0.90;0.67;;;;;;;7.02;100.00;95811.78;5036434;28;20200;-69
2024/01/01 09:25:35;;;;;;;1.30;0.67;;;;;;;7.05;100.00;95818.50;5037856;28;20225;-69
2024/01/01 09:28:01;;;;;;;4.77;1.43;;;;;;;7.14;100.00;95814.91;5036891;28;20201;-68
2024/01/01 09:30:28;;;;;;;4.87;0.90;;;;;;;6.98;100.00;95828.03;5037658;28;20204;-69
2024/01/01 09:32:56;;;;;;;2.50;1.57;;;;;;;7.39;100.00;95833.84;5036923;28;20554;-69
2024/01/01 09:35:22;;;;;;;1.03;0.77;;;;;;;6.99;100.00;95834.91;5038872;28;20197;-69
2024/01/01 09:37:52;;;;;;;4.93;1.30;;;;;;;7.04;100.00;95840.44;5039533;28;20212;-69
2024/01/01 09:40:20;;;;;;;2.20;1.37;;;;;;;7.28;100.00;95830.78;5039565;28;20225;-69
2024/01/01 09:42:47;;;;;;;0.73;0.73;;;;;;;7.25;100.00;95846.00;5038989;28;20205;-69
2024/01/01 09:45:14;;;;;;;2.17;1.30;;;;;;;7.41;100.00;95842.38;5039226;28;20274;-69
2024/01/01 09:47:41;;;;;;;9.70;2.17;;;;;;;7.44;100.00;95844.63;5039105;28;20216;-69
2024/01/01 09:50:09;;;;;;;3.57;1.10;;;;;;;7.51;100.00;95848.25;5038973;28;20197;-69
2024/01/01 09:52:36;;;;;;;2.87;1.30;;;;;;;7.36;100.00;95844.66;5035949;28;20209;-68
2024/01/01 09:55:03;;;;;;;2.80;1.70;;;;;;;7.43;100.00;95844.81;5035826;28;20228;-69
2024/01/01 09:57:30;;;;;;;1.37;0.80;;;;;;;7.40;100.00;95840.72;5036945;28;20213;-69
2024/01/01 09:59:56;;;;;;;4.03;1.70;;;;;;;7.32;100.00;95840.75;5037456;28;20231;-69
2024/01/01 10:02:24;;;;;;;3.47;1.30;;;;;;;7.42;100.00;95837.91;5037183;28;20232;-69
2024/01/01 10:04:50;;;;;;;4.07;1.30;;;;;;;7.32;100.00;95832.06;5038281;28;20294;-69
2024/01/01 10:07:26;;;;;;;2.50;1.00;;;;;;;7.60;100.00;95839.38;5037903;28;20198;-69
2024/01/01 10:09:53;;;;;;;0.87;0.87;;;;;;;7.47;100.00;95825.97;5038275;28;20197;-68
2024/01/01 10:12:23;;;;;;;1.90;1.07;;;;;;;7.67;100.00;95821.97;5037423;28;20209;-69
2024/01/01 10:14:50;;;;;;;2.20;1.00;;;;;;;7.82;100.00;95817.66;5035374;28;20225;-69
2024/01/01 10:17:19;;;;;;;1.87;1.30;;;;;;;7.76;100.00;95820.94;5038033;28;20197;-68
2024/01/01 10:19:51;;;;;;;2.83;1.60;;;;;;;8.09;100.00;95818.00;5036670;28;20666;-69
2024/01/01 10:22:19;;;;;;;1.70;0.90;;;;;;;7.82;100.00;95817.66;5037850;28;20201;-69
2024/01/01 10:24:48;;;;;;;2.20;1.30;;;;;;;8.02;100.00;95811.81;5037814;28;20221;-66
2024/01/01 10:27:18;;;;;;;8.43;3.83;;;;;;;8.36;100.00;95819.38;5038064;28;20198;-66
2024/01/01 10:29:46;;;;;;;3.87;1.80;;;;;;;8.35;100.00;95831.69;5038166;28;20413;-66
2024/01/01 10:32:15;;;;;;;4.07;1.10;;;;;;;8.47;100.00;95832.09;5037044;28;20197;-66
2024/01/01 10:34:42;;;;;;;1.13;0.83;;;;;;;8.37;100.00;95823.63;5037300;28;20240;-66
2024/01/01 10:37:09;;;;;;;1.53;0.70;;;;;;;8.18;100.00;95831.94;5038216;28;20685;-67
2024/01/01 10:39:37;;;;;;;1.40;0.83;;;;;;;8.09;100.00;95840.81;5038619;28;20212;-67
2024/01/01 10:42:06;;;;;;;2.20;1.27;;;;;;;8.30;100.00;95835.78;5038880;28;20227;-67
2024/01/01 10:44:32;;;;;;;2.27;0.80;;;;;;;8.09;100.00;95838.19;5038682;28;20229;-67
2024/01/01 10:47:04;;;;;;;1.30;0.60;;;;;;;8.18;100.00;95832.75;5037809;28;20202;-66
2024/01/01 10:49:32;;;;;;;2.70;1.17;;;;;;;8.21;100.00;95836.84;5038940;28;20201;-67
2024/01/01 10:52:16;;;;;;;0.30;0.30;;;;;;;8.23;100.00;95829.63;5038520;28;20221;-67
2024/01/01 10:54:55;;;;;;;1.20;0.97;;;;;;;8.30;100.00;95827.91;5034503;28;20225;-66
2024/01/01 10:57:49;;;;;;;0.87;0.50;;;;;;;8.30;100.00;95825.28;5035773;28;20196;-67
2024/01/01 11:00:28;;;;;;;0.50;0.50;;;;;;;8.29;100.00;95815.81;5035902;28;20239;-67
2024/01/01 11:02:56;;;;;;;1.93;1.20;;;;;;;8.19;100.00;95812.59;5034799;28;20205;-67
2024/01/01 11:05:32;;;;;;;2.50;0.87;;;;;;;8.35;100.00;95818.56;5031790;28;20436;-66
2024/01/01 11:08:00;;;;;;;0.60;0.50;;;;;;;8.26;100.00;95824.84;5035380;28;20236;-66
2024/01/01 11:10:41;;;;;;;0.73;0.50;;;;;;;8.23;100.00;95824.38;5036407;28;20276;-67
2024/01/01 11:13:12;;;;;;;1.50;0.70;;;;;;;8.27;100.00;95810.72;5035929;28;20687;-67
2024/01/01 11:15:44;;;;;;;2.63;1.10;;;;;;;8.40;100.00;95810.16;5036034;28;20826;-67
2024/01/01 11:18:12;;;;;;;2.00;0.87;;;;;;;8.38;100.00;95809.53;5035281;28;20208;-68
2024/01/01 11:20:50;;;;;;;0.60;0.60;;;;;;;8.52;100.00;95807.75;5037656;28;20229;-69
2024/01/01 11:23:39;;;;;;;3.33;1.13;;;;;;;8.73;100.00;95815.81;5037405;28;20204;-68
2024/01/01 11:26:34;;;;;;;3.73;0.87;;;;;;;8.90;100.00;95819.94;5036305;28;20263;-67
2024/01/01 11:29:04;;;;;;;1.30;0.83;;;;;;;8.62;100.00;95810.97;5019470;28;20201;-67
2024/01/01 11:31:31;;;;;;;0.83;0.67;;;;;;;8.35;100.00;95815.94;5038383;28;20209;-68
2024/01/01 11:34:07;;;;;;;0.63;0.60;;;;;;;8.54;100.00;95812.81;5037441;28;20221;-69